createdAt,value
2023-01-19T00:00:44.503Z,-4.98
2023-01-19T00:01:44.276Z,-5.05
2023-01-19T00:02:44.120Z,-5.04
2023-01-19T00:03:44.191Z,-5.08
2023-01-19T00:04:43.960Z,-5.05
2023-01-19T00:05:43.890Z,-5.07
2023-01-19T00:06:44.131Z,-5.01
2023-01-19T00:07:44.107Z,-5
2023-01-19T00:08:44.079Z,-5.04
2023-01-19T00:09:44.070Z,-4.93
2023-01-19T00:10:44.049Z,-4.93
2023-01-19T00:11:43.748Z,-5.08
2023-01-19T00:12:43.734Z,-5.01
2023-01-19T00:13:43.974Z,-5.07
2023-01-19T00:14:43.444Z,-5.08
2023-01-19T00:15:43.915Z,-5.05
2023-01-19T00:16:43.911Z,-5.1
2023-01-19T00:17:43.905Z,-5.02
2023-01-19T00:18:44.054Z,-5.05
2023-01-19T00:19:43.821Z,-5.01
2023-01-19T00:20:44.128Z,-4.87
2023-01-19T00:21:43.532Z,-4.97
2023-01-19T00:22:43.257Z,-4.89
2023-01-19T00:23:43.756Z,-4.87
2023-01-19T00:24:43.471Z,-4.94
2023-01-19T00:25:43.700Z,-4.9
2023-01-19T00:26:43.423Z,-5.04
2023-01-19T00:27:43.701Z,-4.93
2023-01-19T00:28:43.382Z,-4.94
2023-01-19T00:29:43.111Z,-5.05
2023-01-19T00:30:43.609Z,-5.02
2023-01-19T00:31:43.731Z,-4.98
2023-01-19T00:32:43.285Z,-4.9
2023-01-19T00:33:43.565Z,-4.9
2023-01-19T00:34:43.521Z,-4.97
2023-01-19T00:35:42.974Z,-5.02
2023-01-19T00:36:43.215Z,-5.01
2023-01-19T00:37:43.428Z,-5.01
2023-01-19T00:38:43.159Z,-4.98
2023-01-19T00:39:43.388Z,-5.04
2023-01-19T00:40:42.951Z,-5.04
2023-01-19T00:41:43.371Z,-5.02
2023-01-19T00:42:43.071Z,-4.98
2023-01-19T00:43:43.332Z,-5.07
2023-01-19T00:44:43.037Z,-5.02
2023-01-19T00:45:43.426Z,-5.1
2023-01-19T00:46:42.982Z,-5.12
2023-01-19T00:47:43.203Z,-5.1
2023-01-19T00:48:42.968Z,-5.11
2023-01-19T00:49:43.209Z,-5.23
2023-01-19T00:50:42.912Z,-5.23
2023-01-19T00:51:43.120Z,-5.22
2023-01-19T00:52:43.118Z,-5.05
2023-01-19T00:53:43.087Z,-5.08
2023-01-19T00:54:42.553Z,-5.11
2023-01-19T00:55:43.038Z,-5.05
2023-01-19T00:56:42.505Z,-5.11
2023-01-19T00:57:42.746Z,-5.11
2023-01-19T00:58:42.745Z,-5.04
2023-01-19T00:59:42.442Z,-5.1
2023-01-19T01:00:42.956Z,-5.05
2023-01-19T01:01:51.257Z,-5.08
2023-01-19T01:02:43.190Z,-5.23
2023-01-19T01:03:42.607Z,-5.24
2023-01-19T01:04:42.619Z,-5.26
2023-01-19T01:05:42.572Z,-5.33
2023-01-19T01:06:42.890Z,-5.31
2023-01-19T01:07:42.772Z,-5.31
2023-01-19T01:08:42.785Z,-5.23
2023-01-19T01:09:42.714Z,-5.24
2023-01-19T01:10:42.444Z,-5.37
2023-01-19T01:11:42.422Z,-5.29
2023-01-19T01:12:53.689Z,-5.2
2023-01-19T01:13:42.383Z,-5.24
2023-01-19T01:14:42.736Z,-5.22
2023-01-19T01:15:42.343Z,-5.2
2023-01-19T01:16:42.793Z,-5.23
2023-01-19T01:17:42.292Z,-5.23
2023-01-19T01:18:42.537Z,-5.26
2023-01-19T01:19:42.009Z,-5.23
2023-01-19T01:20:42.216Z,-5.29
2023-01-19T01:21:42.475Z,-5.31
2023-01-19T01:22:42.446Z,-5.44
2023-01-19T01:23:42.144Z,-5.4
2023-01-19T01:24:42.577Z,-5.5
2023-01-19T01:25:42.121Z,-5.56
2023-01-19T01:26:42.339Z,-5.52
2023-01-19T01:27:42.325Z,-5.63
2023-01-19T01:28:42.053Z,-5.68
2023-01-19T01:29:42.279Z,-5.63
2023-01-19T01:30:42.264Z,-5.7
2023-01-19T01:31:42.401Z,-5.62
2023-01-19T01:32:41.947Z,-5.62
2023-01-19T01:34:41.910Z,-5.62
2023-01-19T01:35:42.146Z,-5.69
2023-01-19T01:36:42.118Z,-5.6
2023-01-19T01:37:41.862Z,-5.62
2023-01-19T01:38:42.125Z,-5.65
2023-01-19T01:39:42.059Z,-5.69
2023-01-19T01:40:42.050Z,-5.65
2023-01-19T01:41:41.758Z,-5.69
2023-01-19T01:42:42.128Z,-5.65
2023-01-19T01:43:41.975Z,-5.7
2023-01-19T01:44:41.686Z,-5.77
2023-01-19T01:45:41.772Z,-5.7
2023-01-19T01:46:41.647Z,-5.74
2023-01-19T01:47:41.869Z,-5.81
2023-01-19T01:48:41.848Z,-5.77
2023-01-19T01:49:41.831Z,-5.8
2023-01-19T01:50:41.547Z,-5.79
2023-01-19T01:51:41.819Z,-5.77
2023-01-19T01:52:41.755Z,-5.68
2023-01-19T01:53:41.241Z,-5.74
2023-01-19T01:54:41.733Z,-5.77
2023-01-19T01:55:41.718Z,-5.69
2023-01-19T01:56:41.709Z,-5.79
2023-01-19T01:57:41.709Z,-5.89
2023-01-19T01:58:41.381Z,-5.98
2023-01-19T01:59:41.459Z,-5.92
2023-01-19T02:00:41.320Z,-6.07
2023-01-19T02:01:41.906Z,-6.16
2023-01-19T02:02:42.123Z,-6.08
2023-01-19T02:03:41.739Z,-6.2
2023-01-19T02:04:41.227Z,-6.13
2023-01-19T02:05:41.207Z,-6.12
2023-01-19T02:06:41.207Z,-6.18
2023-01-19T02:07:41.173Z,-6.04
2023-01-19T02:08:41.392Z,-6.13
2023-01-19T02:09:40.891Z,-6.19
2023-01-19T02:10:41.142Z,-6.18
2023-01-19T02:11:41.093Z,-6.19
2023-01-19T02:12:41.092Z,-6.15
2023-01-19T02:13:41.042Z,-6.15
2023-01-19T02:14:41.264Z,-6.08
2023-01-19T02:15:41.242Z,-6.1
2023-01-19T02:16:40.932Z,-6.05
2023-01-19T02:17:41.236Z,-5.99
2023-01-19T02:18:40.909Z,-5.95
2023-01-19T02:19:41.142Z,-5.95
2023-01-19T02:20:41.125Z,-5.92
2023-01-19T02:21:41.112Z,-5.86
2023-01-19T02:22:41.095Z,-5.92
2023-01-19T02:23:41.045Z,-5.97
2023-01-19T02:24:40.782Z,-6.02
2023-01-19T02:25:41.199Z,-6.02
2023-01-19T02:26:40.997Z,-5.94
2023-01-19T02:27:41.105Z,-5.97
2023-01-19T02:28:40.983Z,-6.01
2023-01-19T02:29:40.713Z,-5.86
2023-01-19T02:30:41.064Z,-5.89
2023-01-19T02:31:40.541Z,-5.91
2023-01-19T02:32:40.627Z,-6.01
2023-01-19T02:33:40.568Z,-5.95
2023-01-19T02:34:40.746Z,-5.99
2023-01-19T02:35:40.787Z,-6.12
2023-01-19T02:36:40.758Z,-6.13
2023-01-19T02:37:40.725Z,-6.12
2023-01-19T02:38:40.707Z,-6.13
2023-01-19T02:39:40.917Z,-6.22
2023-01-19T02:40:40.667Z,-6.34
2023-01-19T02:41:40.664Z,-6.3
2023-01-19T02:42:40.397Z,-6.38
2023-01-19T02:43:40.360Z,-6.37
2023-01-19T02:44:40.363Z,-6.44
2023-01-19T02:45:40.323Z,-6.37
2023-01-19T02:46:40.020Z,-6.34
2023-01-19T02:47:40.508Z,-6.43
2023-01-19T02:48:40.503Z,-6.4
2023-01-19T02:49:40.226Z,-6.41
2023-01-19T02:50:40.191Z,-6.31
2023-01-19T02:51:40.161Z,-6.37
2023-01-19T02:52:40.383Z,-6.3
2023-01-19T02:53:40.148Z,-6.3
2023-01-19T02:54:40.377Z,-6.38
2023-01-19T02:55:40.334Z,-6.31
2023-01-19T02:56:40.301Z,-6.23
2023-01-19T02:57:40.315Z,-6.31
2023-01-19T02:58:40.283Z,-6.26
2023-01-19T02:59:40.248Z,-6.28
2023-01-19T03:00:40.233Z,-6.25
2023-01-19T03:01:40.517Z,-6.15
2023-01-19T03:02:40.264Z,-6.15
2023-01-19T03:03:39.897Z,-6.12
2023-01-19T03:04:40.123Z,-6.04
2023-01-19T03:05:40.104Z,-6.02
2023-01-19T03:06:39.823Z,-5.94
2023-01-19T03:07:39.553Z,-5.92
2023-01-19T03:08:40.018Z,-5.94
2023-01-19T03:09:40.029Z,-5.99
2023-01-19T03:10:39.991Z,-5.97
2023-01-19T03:11:39.977Z,-6.16
2023-01-19T03:12:39.931Z,-6.19
2023-01-19T03:13:39.943Z,-6.15
2023-01-19T03:14:39.687Z,-6.1
2023-01-19T03:15:39.979Z,-6.15
2023-01-19T03:16:40.071Z,-6.15
2023-01-19T03:17:39.583Z,-6.18
2023-01-19T03:18:39.816Z,-6.22
2023-01-19T03:19:39.780Z,-6.26
2023-01-19T03:20:39.511Z,-6.25
2023-01-19T03:21:39.492Z,-6.25
2023-01-19T03:22:39.194Z,-6.34
2023-01-19T03:23:39.430Z,-6.28
2023-01-19T03:24:41.552Z,-6.25
2023-01-19T03:25:39.436Z,-6.23
2023-01-19T03:26:39.481Z,-6.08
2023-01-19T03:27:39.591Z,-6.02
2023-01-19T03:28:39.599Z,-6.08
2023-01-19T03:29:39.623Z,-6.15
2023-01-19T03:30:39.655Z,-6.04
2023-01-19T03:31:39.253Z,-6.18
2023-01-19T03:32:39.515Z,-6.18
2023-01-19T03:50:05.349Z,-6.01
2023-01-19T03:51:04.699Z,-6.05
2023-01-19T03:52:05.174Z,-6.1
2023-01-19T03:53:05.876Z,-6.19
2023-01-19T03:54:05.131Z,-6.19
2023-01-19T03:55:04.629Z,-6.23
2023-01-19T03:56:04.840Z,-6.31
2023-01-19T03:57:05.068Z,-6.22
2023-01-19T03:58:04.832Z,-6.37
2023-01-19T03:59:04.773Z,-6.4
2023-01-19T04:00:05.009Z,-6.37
2023-01-19T04:01:04.844Z,-6.49
2023-01-19T04:02:05.158Z,-6.59
2023-01-19T04:03:05.814Z,-6.55
2023-01-19T04:04:05.032Z,-6.6
2023-01-19T04:05:04.428Z,-6.68
2023-01-19T04:06:04.998Z,-6.68
2023-01-19T04:07:04.845Z,-6.67
2023-01-19T04:08:04.805Z,-6.65
2023-01-19T04:09:04.793Z,-6.71
2023-01-19T04:10:04.767Z,-6.68
2023-01-19T04:11:04.740Z,-6.81
2023-01-19T04:12:04.459Z,-6.77
2023-01-19T04:13:05.642Z,-6.74
2023-01-19T04:14:04.672Z,-6.91
2023-01-19T04:15:04.143Z,-6.91
2023-01-19T04:16:05.024Z,-6.92
2023-01-19T04:17:04.210Z,-6.88
2023-01-19T04:18:04.704Z,-6.92
2023-01-19T04:19:04.407Z,-6.91
2023-01-19T04:20:04.664Z,-6.83
2023-01-19T04:21:04.390Z,-6.76
2023-01-19T04:22:04.859Z,-6.76
2023-01-19T04:23:05.690Z,-6.76
2023-01-19T04:24:04.595Z,-6.76
2023-01-19T04:25:04.532Z,-6.68
2023-01-19T04:26:04.382Z,-6.62
2023-01-19T04:27:04.236Z,-6.58
2023-01-19T04:28:04.221Z,-6.46
2023-01-19T04:29:04.466Z,-6.44
2023-01-19T04:30:04.165Z,-6.36
2023-01-19T04:31:04.098Z,-6.34
2023-01-19T04:32:04.365Z,-6.36
2023-01-19T04:33:05.639Z,-6.37
2023-01-19T04:34:04.336Z,-6.37
2023-01-19T04:35:04.309Z,-6.25
2023-01-19T04:36:04.254Z,-6.2
2023-01-19T04:37:04.251Z,-6.19
2023-01-19T04:38:04.304Z,-6.3
2023-01-19T04:39:04.215Z,-6.23
2023-01-19T04:40:03.929Z,-6.18
2023-01-19T04:41:04.156Z,-6.19
2023-01-19T04:42:04.151Z,-6.15
2023-01-19T04:43:05.034Z,-6.04
2023-01-19T04:44:04.098Z,-6.12
2023-01-19T04:45:03.809Z,-6.04
2023-01-19T04:46:04.089Z,-6.02
2023-01-19T04:47:03.512Z,-6.07
2023-01-19T04:48:04.012Z,-6.13
2023-01-19T04:49:03.997Z,-6.08
2023-01-19T04:50:03.705Z,-6.07
2023-01-19T04:51:03.757Z,-6.08
2023-01-19T04:52:03.910Z,-6.04
2023-01-19T04:53:04.717Z,-6.02
2023-01-19T04:54:04.080Z,-6.04
2023-01-19T04:55:03.884Z,-5.99
2023-01-19T04:56:03.579Z,-6.07
2023-01-19T04:57:03.799Z,-6.13
2023-01-19T04:58:03.514Z,-6.08
2023-01-19T04:59:03.777Z,-6.2
2023-01-19T05:00:03.477Z,-6.19
2023-01-19T05:01:03.403Z,-6.28
2023-01-19T05:02:03.908Z,-6.23
2023-01-19T05:03:05.392Z,-6.23
2023-01-19T05:04:03.699Z,-6.37
2023-01-19T05:05:03.629Z,-6.3
2023-01-19T05:06:03.083Z,-6.33
2023-01-19T05:07:03.083Z,-6.38
2023-01-19T05:08:03.312Z,-6.4
2023-01-19T05:09:03.261Z,-6.44
2023-01-19T05:10:03.634Z,-6.37
2023-01-19T05:11:03.231Z,-6.36
2023-01-19T05:12:03.203Z,-6.37
2023-01-19T05:13:04.595Z,-6.37
2023-01-19T05:14:03.418Z,-6.43
2023-01-19T05:15:03.155Z,-6.52
2023-01-19T05:16:03.530Z,-6.54
2023-01-19T05:17:03.357Z,-6.58
2023-01-19T05:18:03.342Z,-6.59
2023-01-19T05:19:03.304Z,-6.62
2023-01-19T05:20:03.028Z,-6.58
2023-01-19T05:21:02.743Z,-6.59
2023-01-19T05:22:03.260Z,-6.62
2023-01-19T05:23:04.521Z,-6.63
2023-01-19T05:24:03.217Z,-6.67
2023-01-19T05:25:03.187Z,-6.65
2023-01-19T05:26:03.242Z,-6.65
2023-01-19T05:27:02.890Z,-6.59
2023-01-19T05:28:02.856Z,-6.44
2023-01-19T05:29:02.840Z,-6.44
2023-01-19T05:30:02.805Z,-6.36
2023-01-19T05:31:03.203Z,-6.34
2023-01-19T05:32:02.897Z,-6.25
2023-01-19T05:33:03.828Z,-6.23
2023-01-19T05:34:02.704Z,-6.12
2023-01-19T05:35:02.735Z,-6.16
2023-01-19T05:36:02.692Z,-6.05
2023-01-19T05:37:02.886Z,-6.04
2023-01-19T05:38:02.636Z,-6.01
2023-01-19T05:39:02.857Z,-5.89
2023-01-19T05:40:02.582Z,-6.02
2023-01-19T05:41:02.867Z,-5.91
2023-01-19T05:42:02.995Z,-6.05
2023-01-19T05:43:04.213Z,-5.97
2023-01-19T05:44:02.258Z,-5.98
2023-01-19T05:45:02.731Z,-6.05
2023-01-19T05:46:02.443Z,-5.99
2023-01-19T05:47:02.782Z,-6.02
2023-01-19T05:48:02.409Z,-5.95
2023-01-19T05:49:02.370Z,-5.87
2023-01-19T05:50:02.338Z,-5.91
2023-01-19T05:51:02.673Z,-5.99
2023-01-19T05:52:02.557Z,-5.8
2023-01-19T05:53:03.674Z,-5.7
2023-01-19T05:54:02.513Z,-5.73
2023-01-19T05:55:02.221Z,-5.63
2023-01-19T05:56:02.504Z,-5.69
2023-01-19T05:57:02.490Z,-5.68
2023-01-19T05:58:02.563Z,-5.59
2023-01-19T05:59:01.960Z,-5.59
2023-01-19T06:00:02.129Z,-5.62
2023-01-19T06:01:02.496Z,-5.59
2023-01-19T06:02:02.284Z,-5.45
2023-01-19T06:03:03.234Z,-5.48
2023-01-19T06:04:02.283Z,-5.52
2023-01-19T06:05:02.295Z,-5.42
2023-01-19T06:06:01.987Z,-5.29
2023-01-19T06:07:01.985Z,-5.24
2023-01-19T06:08:02.218Z,-5.23
2023-01-19T06:09:01.955Z,-5.1
2023-01-19T06:10:01.667Z,-5.04
2023-01-19T06:11:02.927Z,-5.04
2023-01-19T06:12:02.664Z,-5.05
2023-01-19T06:13:03.995Z,-5.04
2023-01-19T06:14:03.065Z,-5.07
2023-01-19T06:15:02.578Z,-5.05
2023-01-19T06:16:03.114Z,-4.93
2023-01-19T06:17:02.790Z,-4.9
2023-01-19T06:18:02.762Z,-4.9
2023-01-19T06:19:02.735Z,-4.86
2023-01-19T06:20:02.716Z,-4.87
2023-01-19T06:21:02.694Z,-4.83
2023-01-19T06:22:02.696Z,-4.89
2023-01-19T06:23:03.614Z,-4.89
2023-01-19T06:24:02.376Z,-4.93
2023-01-19T06:25:02.348Z,-4.89
2023-01-19T06:26:02.586Z,-4.9
2023-01-19T06:27:02.301Z,-4.9
2023-01-19T06:28:02.547Z,-4.86
2023-01-19T06:29:02.263Z,-4.83
2023-01-19T06:30:02.636Z,-4.92
2023-01-19T06:31:02.714Z,-4.92
2023-01-19T06:32:02.417Z,-4.9
2023-01-19T06:33:03.371Z,-4.86
2023-01-19T06:34:02.144Z,-4.84
2023-01-19T06:35:02.376Z,-4.84
2023-01-19T06:36:02.128Z,-4.86
2023-01-19T06:37:02.080Z,-4.87
2023-01-19T06:38:02.089Z,-4.89
2023-01-19T06:39:02.287Z,-4.87
2023-01-19T06:40:01.771Z,-4.86
2023-01-19T06:41:01.733Z,-4.84
2023-01-19T06:42:01.969Z,-4.72
2023-01-19T06:43:02.969Z,-4.73
2023-01-19T06:44:02.004Z,-4.66
2023-01-19T06:45:02.149Z,-4.72
2023-01-19T06:46:02.538Z,-4.62
2023-01-19T06:47:20.012Z,-4.57
2023-01-19T06:48:01.825Z,-4.51
2023-01-19T06:49:02.091Z,-4.51
2023-01-19T06:50:02.062Z,-4.55
2023-01-19T06:51:04.301Z,-4.51
2023-01-19T06:52:01.749Z,-4.51
2023-01-19T06:53:02.754Z,-4.47
2023-01-19T06:54:01.711Z,-4.39
2023-01-19T06:55:01.931Z,-4.41
2023-01-19T06:56:02.471Z,-4.44
2023-01-19T06:57:02.813Z,-4.43
2023-01-19T06:58:01.786Z,-4.45
2023-01-19T06:59:01.605Z,-4.48
2023-01-19T07:00:01.596Z,-4.45
2023-01-19T07:01:02.239Z,-4.44
2023-01-19T07:02:28.784Z,-4.47
2023-01-19T07:03:02.961Z,-4.47
2023-01-19T07:04:01.488Z,-4.41
2023-01-19T07:05:01.698Z,-4.39
2023-01-19T07:06:01.740Z,-4.45
2023-01-19T07:07:01.410Z,-4.47
2023-01-19T07:08:01.680Z,-4.34
2023-01-19T07:09:01.613Z,-4.34
2023-01-19T07:10:01.620Z,-4.32
2023-01-19T07:11:35.443Z,-4.29
2023-01-19T07:12:01.591Z,-4.3
2023-01-19T07:13:02.514Z,-4.27
2023-01-19T07:14:01.529Z,-4.23
2023-01-19T07:15:01.523Z,-4.27
2023-01-19T07:16:01.202Z,-4.25
2023-01-19T07:17:01.310Z,-4.26
2023-01-19T07:18:01.604Z,-4.19
2023-01-19T07:19:01.427Z,-4.22
2023-01-19T07:20:01.394Z,-4.23
2023-01-19T07:21:01.356Z,-4.09
2023-01-19T07:22:01.079Z,-4.09
2023-01-19T07:23:02.177Z,-4.08
2023-01-19T07:24:01.322Z,-4.04
2023-01-19T07:25:01.281Z,-3.96
2023-01-19T07:26:00.987Z,-3.88
2023-01-19T07:27:00.976Z,-3.82
2023-01-19T07:28:00.695Z,-3.83
2023-01-19T07:29:01.181Z,-3.66
2023-01-19T07:30:00.906Z,-3.65
2023-01-19T07:31:01.520Z,-3.75
2023-01-19T07:32:01.201Z,-3.66
2023-01-19T07:33:01.980Z,-3.61
2023-01-19T07:34:01.141Z,-3.61
2023-01-19T07:35:01.059Z,-3.61
2023-01-19T07:36:00.817Z,-3.58
2023-01-19T07:37:01.116Z,-3.61
2023-01-19T07:38:01.025Z,-3.53
2023-01-19T07:39:00.702Z,-3.56
2023-01-19T07:40:00.703Z,-3.56
2023-01-19T07:41:00.929Z,-3.47
2023-01-19T07:42:00.407Z,-3.47
2023-01-19T07:43:01.680Z,-3.51
2023-01-19T07:44:00.605Z,-3.42
2023-01-19T07:45:00.825Z,-3.36
2023-01-19T07:46:00.948Z,-3.39
2023-01-19T07:47:00.538Z,-3.36
2023-01-19T07:48:00.505Z,-3.38
2023-01-19T07:49:00.749Z,-3.33
2023-01-19T07:50:00.801Z,-3.35
2023-01-19T07:51:00.187Z,-3.29
2023-01-19T07:52:00.426Z,-3.32
2023-01-19T07:53:01.226Z,-3.29
2023-01-19T07:54:00.374Z,-3.29
2023-01-19T07:55:00.610Z,-3.24
2023-01-19T07:56:00.612Z,-3.29
2023-01-19T07:57:00.319Z,-3.3
2023-01-19T07:58:00.559Z,-3.3
2023-01-19T07:59:00.524Z,-3.33
2023-01-19T08:00:00.513Z,-3.36
2023-01-19T08:01:00.724Z,-3.33
2023-01-19T08:02:01.760Z,-3.29
2023-01-19T08:03:01.245Z,-3.33
2023-01-19T08:04:00.193Z,-3.42
2023-01-19T08:05:00.458Z,-3.33
2023-01-19T08:06:00.487Z,-3.36
2023-01-19T08:07:00.445Z,-3.33
2023-01-19T08:08:00.093Z,-3.35
2023-01-19T08:09:00.326Z,-3.36
2023-01-19T08:10:00.305Z,-3.35
2023-01-19T08:11:00.030Z,-3.4
2023-01-19T08:12:00.249Z,-3.39
2023-01-19T08:13:00.595Z,-3.45
2023-01-19T08:14:00.228Z,-3.4
2023-01-19T08:14:59.667Z,-3.42
2023-01-19T08:16:00.406Z,-3.42
2023-01-19T08:16:59.882Z,-3.35
2023-01-19T08:17:59.875Z,-3.47
2023-01-19T08:19:00.134Z,-3.36
2023-01-19T08:19:59.804Z,-3.43
2023-01-19T08:20:59.792Z,-3.4
2023-01-19T08:22:00.205Z,-3.38
2023-01-19T08:23:01.186Z,-3.43
2023-01-19T08:24:00.245Z,-3.39
2023-01-19T08:24:59.714Z,-3.4
2023-01-19T08:25:59.940Z,-3.36
2023-01-19T08:26:59.924Z,-3.43
2023-01-19T08:27:59.927Z,-3.35
2023-01-19T08:28:59.869Z,-3.33
2023-01-19T08:29:59.864Z,-3.3
2023-01-19T08:31:08.057Z,-3.29
2023-01-19T08:32:00.345Z,-3.21
2023-01-19T08:33:00.120Z,-3.15
2023-01-19T08:33:59.781Z,-3.24
2023-01-19T08:34:59.754Z,-3.29
2023-01-19T08:35:59.733Z,-3.33
2023-01-19T08:36:59.451Z,-3.32
2023-01-19T08:37:59.796Z,-3.28
2023-01-19T08:38:59.673Z,-3.35
2023-01-19T08:39:59.379Z,-3.3
2023-01-19T08:40:59.642Z,-3.25
2023-01-19T08:41:59.354Z,-3.33
2023-01-19T08:42:59.642Z,-3.35
2023-01-19T08:43:59.301Z,-3.29
2023-01-19T08:45:03.464Z,-3.14
2023-01-19T08:45:59.308Z,-3.01
2023-01-19T08:46:59.231Z,-2.93
2023-01-19T08:47:59.463Z,-2.91
2023-01-19T08:48:59.194Z,-2.76
2023-01-19T08:49:59.430Z,-2.64
2023-01-19T08:50:59.145Z,-2.58
2023-01-19T08:51:59.394Z,-2.55
2023-01-19T08:52:59.624Z,-2.5
2023-01-19T08:53:59.442Z,-2.47
2023-01-19T08:54:58.806Z,-2.42
2023-01-19T08:55:59.291Z,-2.43
2023-01-19T08:56:59.283Z,-2.21
2023-01-19T08:57:59.438Z,-2.24
2023-01-19T08:59:15.427Z,-2.23
2023-01-19T08:59:59.209Z,-2.21
2023-01-19T09:00:59.402Z,-2.2
2023-01-19T09:01:59.722Z,-2.18
2023-01-19T09:02:59.787Z,-2.1
2023-01-19T09:03:58.900Z,-2.15
2023-01-19T09:04:59.125Z,-2.09
2023-01-19T09:05:59.127Z,-2.07
2023-01-19T09:06:59.114Z,-2.02
2023-01-19T09:07:59.267Z,-2
2023-01-19T09:08:59.033Z,-1.96
2023-01-19T09:09:59.175Z,-1.99
2023-01-19T09:10:58.762Z,-1.97
2023-01-19T09:11:58.992Z,-1.92
2023-01-19T09:12:58.724Z,-1.86
2023-01-19T09:13:58.809Z,-1.92
2023-01-19T09:14:59.114Z,-1.89
2023-01-19T09:15:59.111Z,-1.84
2023-01-19T09:16:58.886Z,-1.82
2023-01-19T09:17:59.166Z,-1.84
2023-01-19T09:18:58.594Z,-1.73
2023-01-19T09:19:58.816Z,-1.85
2023-01-19T09:20:58.528Z,-1.7
2023-01-19T09:21:58.521Z,-1.67
2023-01-19T09:22:58.506Z,-1.6
2023-01-19T09:23:58.226Z,-1.6
2023-01-19T09:24:58.814Z,-1.55
2023-01-19T09:25:58.816Z,-1.48
2023-01-19T09:26:58.715Z,-1.53
2023-01-19T09:27:58.881Z,-1.48
2023-01-19T09:28:58.649Z,-1.49
2023-01-19T09:29:58.387Z,-1.56
2023-01-19T09:30:59.129Z,-1.56
2023-01-19T09:31:58.818Z,-1.58
2023-01-19T09:33:01.077Z,-1.56
2023-01-19T09:33:58.540Z,-1.52
2023-01-19T09:34:58.505Z,-1.49
2023-01-19T09:35:58.233Z,-1.37
2023-01-19T09:36:58.208Z,-1.25
2023-01-19T09:37:58.594Z,-1.16
2023-01-19T09:38:58.174Z,-1.21
2023-01-19T09:39:58.722Z,-1.17
2023-01-19T09:40:58.464Z,-1.24
2023-01-19T09:41:58.469Z,-1.24
2023-01-19T09:42:58.349Z,-1.27
2023-01-19T09:43:58.088Z,-1.19
2023-01-19T09:44:58.303Z,-1.17
2023-01-19T09:45:58.019Z,-1.11
2023-01-19T09:46:58.270Z,-1.1
2023-01-19T09:47:58.266Z,-1.1
2023-01-19T09:48:58.253Z,-0.98
2023-01-19T09:49:58.188Z,-0.87
2023-01-19T09:50:58.163Z,-0.87
2023-01-19T09:51:57.917Z,-0.84
2023-01-19T09:52:57.658Z,-0.73
2023-01-19T09:53:58.461Z,-0.74
2023-01-19T09:54:57.862Z,-0.62
2023-01-19T09:55:58.124Z,-0.61
2023-01-19T09:56:57.800Z,-0.59
2023-01-19T09:57:58.430Z,-0.59
2023-01-19T09:58:57.756Z,-0.62
2023-01-19T09:59:57.990Z,-0.62
2023-01-19T10:00:58.541Z,-0.73
2023-01-19T10:01:57.894Z,-0.67
2023-01-19T10:02:58.443Z,-0.69
2023-01-19T10:03:57.914Z,-0.61
2023-01-19T10:04:57.907Z,-0.73
2023-01-19T10:05:57.622Z,-0.54
2023-01-19T10:06:57.340Z,-0.52
2023-01-19T10:07:58.055Z,-0.4
2023-01-19T10:08:57.828Z,-0.27
2023-01-19T10:09:57.549Z,-0.09
2023-01-19T10:10:57.813Z,-0.04
2023-01-19T10:11:58.165Z,0.01
2023-01-19T10:12:57.811Z,0.05
2023-01-19T10:13:57.788Z,0.13
2023-01-19T10:14:57.184Z,0.09
2023-01-19T10:15:57.641Z,-0.02
2023-01-19T10:16:57.648Z,0.09
2023-01-19T10:17:57.638Z,0.1
2023-01-19T10:18:57.362Z,0.09
2023-01-19T10:19:57.333Z,0.06
2023-01-19T10:20:57.628Z,-0.04
2023-01-19T10:21:57.547Z,-0.09
2023-01-19T10:22:57.315Z,-0.23
2023-01-19T10:23:57.540Z,-0.27
2023-01-19T10:24:57.493Z,-0.38
2023-01-19T10:25:57.431Z,-0.43
2023-01-19T10:26:57.256Z,-0.49
2023-01-19T10:27:57.487Z,-0.7
2023-01-19T10:28:57.178Z,-0.66
2023-01-19T10:29:57.616Z,-0.76
2023-01-19T10:30:57.619Z,-0.79
2023-01-19T10:31:57.644Z,-0.85
2023-01-19T10:32:57.235Z,-0.93
2023-01-19T10:33:57.410Z,-0.93
2023-01-19T10:34:57.386Z,-0.84
2023-01-19T10:35:57.268Z,-0.87
2023-01-19T10:36:57.294Z,-0.89
2023-01-19T10:37:57.295Z,-0.96
2023-01-19T10:38:57.220Z,-0.93
2023-01-19T10:39:57.493Z,-1.04
2023-01-19T10:40:57.227Z,-1.04
2023-01-19T10:41:57.215Z,-1.04
2023-01-19T10:42:57.185Z,-1.1
2023-01-19T10:43:57.255Z,-0.99
2023-01-19T10:44:57.169Z,-0.87
2023-01-19T10:45:57.387Z,-0.77
2023-01-19T10:46:57.051Z,-0.73
2023-01-19T10:47:57.103Z,-0.69
2023-01-19T10:48:57.138Z,-0.66
2023-01-19T10:49:56.801Z,-0.69
2023-01-19T10:50:56.730Z,-0.7
2023-01-19T10:51:57.014Z,-0.64
2023-01-19T10:52:56.935Z,-0.7
2023-01-19T10:53:56.706Z,-0.64
2023-01-19T10:54:56.767Z,-0.66
2023-01-19T10:55:56.701Z,-0.54
2023-01-19T10:56:56.854Z,-0.31
2023-01-19T10:57:56.882Z,-0.31
2023-01-19T10:58:56.620Z,-0.31
2023-01-19T10:59:56.608Z,-0.43
2023-01-19T11:00:57.386Z,-0.38
2023-01-19T11:01:57.752Z,-0.37
2023-01-19T11:02:56.660Z,-0.28
2023-01-19T11:03:56.753Z,-0.22
2023-01-19T11:04:56.757Z,-0.13
2023-01-19T11:05:56.657Z,-0.13
2023-01-19T11:06:56.658Z,-0.04
2023-01-19T11:07:56.386Z,0.08
2023-01-19T11:08:56.640Z,0.02
2023-01-19T11:09:56.332Z,-0.1
2023-01-19T11:10:56.573Z,-0.1
2023-01-19T11:11:56.578Z,-0.07
2023-01-19T11:12:56.284Z,-0.12
2023-01-19T11:13:57.386Z,-0.05
2023-01-19T11:14:57.110Z,-0.07
2023-01-19T11:15:57.359Z,-0.09
2023-01-19T11:16:57.375Z,-0.16
2023-01-19T11:17:57.383Z,-0.23
2023-01-19T11:18:57.334Z,-0.23
2023-01-19T11:19:57.363Z,-0.23
2023-01-19T11:20:57.242Z,-0.3
2023-01-19T11:21:56.962Z,-0.4
2023-01-19T11:22:56.949Z,-0.36
2023-01-19T11:23:57.183Z,-0.38
2023-01-19T11:24:57.163Z,-0.27
2023-01-19T11:25:57.138Z,-0.18
2023-01-19T11:26:56.893Z,-0.1
2023-01-19T11:27:57.131Z,-0.13
2023-01-19T11:28:56.845Z,-0.09
2023-01-19T11:29:57.119Z,0.03
2023-01-19T11:30:56.982Z,0.01
2023-01-19T11:31:57.443Z,0.09
2023-01-19T11:32:57.027Z,0.02
2023-01-19T11:33:57.063Z,0.06
2023-01-19T11:34:56.973Z,0.01
2023-01-19T11:35:56.713Z,-0.04
2023-01-19T11:36:56.950Z,-0.04
2023-01-19T11:37:56.921Z,0.03
2023-01-19T11:38:56.630Z,0.02
2023-01-19T11:39:56.890Z,-0.04
2023-01-19T11:40:56.652Z,-0.05
2023-01-19T11:41:56.831Z,-0.2
2023-01-19T11:42:56.806Z,-0.18
2023-01-19T11:43:56.532Z,-0.15
2023-01-19T11:44:56.775Z,-0.1
2023-01-19T11:45:56.879Z,-0.23
2023-01-19T11:46:56.729Z,-0.33
2023-01-19T11:47:56.771Z,-0.34
2023-01-19T11:48:56.452Z,-0.36
2023-01-19T11:49:56.790Z,-0.48
2023-01-19T11:50:56.660Z,-0.59
2023-01-19T11:51:56.656Z,-0.64
2023-01-19T11:52:56.612Z,-0.64
2023-01-19T11:53:56.605Z,-0.67
2023-01-19T11:54:56.304Z,-0.7
2023-01-19T11:55:56.450Z,-0.66
2023-01-19T11:56:56.274Z,-0.67
2023-01-19T11:58:03.543Z,-0.76
2023-01-19T11:58:56.476Z,-0.72
2023-01-19T11:59:56.498Z,-0.69
2023-01-19T12:00:56.631Z,-0.66
2023-01-19T12:01:56.274Z,-0.7
2023-01-19T12:02:56.414Z,-0.62
2023-01-19T12:03:59.495Z,-0.55
2023-01-19T12:04:56.118Z,-0.58
2023-01-19T12:05:56.435Z,-0.59
2023-01-19T12:06:56.089Z,-0.55
2023-01-19T12:07:56.308Z,-0.58
2023-01-19T12:08:56.033Z,-0.55
2023-01-19T12:09:56.273Z,-0.49
2023-01-19T12:10:56.244Z,-0.58
2023-01-19T12:11:55.971Z,-0.58
2023-01-19T12:12:55.951Z,-0.58
2023-01-19T12:13:58.659Z,-0.61
2023-01-19T12:14:56.156Z,-0.69
2023-01-19T12:15:56.164Z,-0.8
2023-01-19T12:16:56.224Z,-0.8
2023-01-19T12:17:55.854Z,-0.85
2023-01-19T12:18:56.122Z,-0.89
2023-01-19T12:19:59.035Z,-0.89
2023-01-19T12:20:55.562Z,-0.91
2023-01-19T12:21:56.150Z,-0.99
2023-01-19T12:22:55.784Z,-0.99
2023-01-19T12:23:56.013Z,-0.93
2023-01-19T12:24:55.756Z,-0.92
2023-01-19T12:25:58.222Z,-0.95
2023-01-19T12:26:55.991Z,-1.04
2023-01-19T12:27:55.928Z,-1.09
2023-01-19T12:28:55.667Z,-1.22
2023-01-19T12:29:55.900Z,-1.21
2023-01-19T12:30:56.044Z,-1.17
2023-01-19T12:31:57.000Z,-1.17
2023-01-19T12:32:55.577Z,-1.24
2023-01-19T12:33:55.569Z,-1.11
2023-01-19T12:34:55.788Z,-1.09
2023-01-19T12:35:55.778Z,-1.04
2023-01-19T12:36:55.759Z,-1.09
2023-01-19T12:37:55.885Z,-1.07
2023-01-19T12:38:55.716Z,-1.04
2023-01-19T12:39:55.668Z,-1.01
2023-01-19T12:40:55.676Z,-1.07
2023-01-19T12:41:56.155Z,-1.06
2023-01-19T12:42:56.149Z,-1.06
2023-01-19T12:43:55.868Z,-1.14
2023-01-19T12:44:55.877Z,-1.1
2023-01-19T12:45:55.725Z,-1.09
2023-01-19T12:46:56.076Z,-1.14
2023-01-19T12:47:57.563Z,-1.13
2023-01-19T12:48:55.777Z,-1.1
2023-01-19T12:49:56.008Z,-1.19
2023-01-19T12:50:55.727Z,-1.21
2023-01-19T12:51:55.961Z,-1.21
2023-01-19T12:52:55.938Z,-1.25
2023-01-19T12:53:56.018Z,-1.22
2023-01-19T12:54:55.641Z,-1.24
2023-01-19T12:55:55.910Z,-1.17
2023-01-19T12:56:55.358Z,-1.25
2023-01-19T12:57:55.606Z,-1.3
2023-01-19T12:58:55.810Z,-1.27
2023-01-19T12:59:55.530Z,-1.25
2023-01-19T13:00:55.756Z,-1.3
2023-01-19T13:01:55.891Z,-1.28
2023-01-19T13:02:56.661Z,-1.28
2023-01-19T13:03:56.178Z,-1.28
2023-01-19T13:04:56.397Z,-1.22
2023-01-19T13:05:55.888Z,-1.21
2023-01-19T13:06:56.119Z,-1.19
2023-01-19T13:07:56.090Z,-1.19
2023-01-19T13:08:56.323Z,-1.1
2023-01-19T13:09:56.409Z,-1.07
2023-01-19T13:10:56.060Z,-1.1
2023-01-19T13:12:05.484Z,-1.09
2023-01-19T13:12:56.228Z,-1.11
2023-01-19T13:13:56.213Z,-1.11